createdAt,value
2018-08-24T00:01:18.206Z,96.16
2018-08-24T00:03:46.741Z,96.41
2018-08-24T00:06:15.275Z,96.47
2018-08-24T00:08:43.717Z,96.65
2018-08-24T00:11:12.228Z,96.21
2018-08-24T00:13:53.778Z,96.40
2018-08-24T00:16:27.252Z,96.53
2018-08-24T00:18:55.846Z,96.82
2018-08-24T00:21:24.402Z,96.70
2018-08-24T00:23:52.895Z,96.44
2018-08-24T00:26:21.455Z,96.80
2018-08-24T00:28:49.876Z,96.55
2018-08-24T00:31:18.426Z,96.31
2018-08-24T00:33:52.867Z,96.63
2018-08-24T00:36:23.285Z,96.43
2018-08-24T00:38:51.875Z,96.45
2018-08-24T00:41:20.333Z,95.75
2018-08-24T00:43:49.055Z,96.22
2018-08-24T00:46:17.517Z,96.76
2018-08-24T00:48:46.609Z,96.54
2018-08-24T00:51:15.037Z,96.68
2018-08-24T00:53:43.960Z,96.14
2018-08-24T00:56:13.695Z,96.25
2018-08-24T00:58:42.286Z,96.01
2018-08-24T01:01:11.837Z,96.50
2018-08-24T01:03:40.323Z,97.14
2018-08-24T01:06:09.056Z,96.69
2018-08-24T01:08:37.535Z,96.89
2018-08-24T01:11:06.035Z,97.42
2018-08-24T01:13:35.357Z,97.46
2018-08-24T01:16:04.021Z,97.74
2018-08-24T01:18:37.921Z,97.50
2018-08-24T01:21:06.394Z,97.37
2018-08-24T01:23:35.289Z,97.88
2018-08-24T01:26:04.580Z,98.06
2018-08-24T01:28:33.080Z,97.87
2018-08-24T01:31:07.747Z,97.97
2018-08-24T01:33:36.285Z,98.70
2018-08-24T01:36:08.979Z,98.92
2018-08-24T01:38:37.445Z,98.76
2018-08-24T01:41:06.058Z,99.31
2018-08-24T01:43:35.642Z,98.92
2018-08-24T01:46:12.515Z,98.95
2018-08-24T01:48:41.704Z,99.14
2018-08-24T01:51:10.317Z,99.18
2018-08-24T01:53:38.868Z,98.89
2018-08-24T01:56:07.292Z,98.19
2018-08-24T01:58:35.872Z,98.40
2018-08-24T02:01:04.945Z,98.65
2018-08-24T02:03:33.494Z,98.32
2018-08-24T02:06:07.758Z,98.32
2018-08-24T02:08:37.238Z,98.33
2018-08-24T02:11:11.484Z,99.16
2018-08-24T02:13:46.575Z,98.68
2018-08-24T02:16:15.160Z,98.69
2018-08-24T02:18:49.051Z,98.92
2018-08-24T02:21:22.879Z,99.23
2018-08-24T02:23:51.350Z,99.08
2018-08-24T02:26:20.789Z,99.38
2018-08-24T02:28:49.343Z,99.23
2018-08-24T02:31:17.865Z,98.83
2018-08-24T02:33:46.365Z,98.87
2018-08-24T02:36:38.071Z,98.78
2018-08-24T02:39:09.872Z,99.18
2018-08-24T02:41:38.444Z,98.92
2018-08-24T02:44:06.960Z,99.38
2018-08-24T02:46:35.487Z,99.83
2018-08-24T02:49:04.090Z,99.61
2018-08-24T02:51:32.935Z,100.00
2018-08-24T02:54:01.542Z,99.56
2018-08-24T02:56:30.100Z,99.35
2018-08-24T02:58:58.592Z,99.34
2018-08-24T03:01:27.201Z,99.62
2018-08-24T03:03:55.761Z,99.84
2018-08-24T03:06:24.295Z,99.75
2018-08-24T03:08:52.910Z,99.48
2018-08-24T03:11:21.389Z,99.28
2018-08-24T03:13:49.883Z,99.29
2018-08-24T03:16:18.472Z,99.37
2018-08-24T03:18:46.928Z,99.36
2018-08-24T03:21:15.440Z,99.05
2018-08-24T03:24:09.204Z,98.41
2018-08-24T03:26:37.643Z,98.54
2018-08-24T03:29:34.865Z,98.95
2018-08-24T03:32:03.486Z,98.48
2018-08-24T03:34:32.039Z,98.06
2018-08-24T03:37:00.593Z,98.51
2018-08-24T03:39:29.065Z,98.39
2018-08-24T03:41:57.637Z,98.16
2018-08-24T03:44:26.228Z,97.87
2018-08-24T03:46:54.924Z,97.66
2018-08-24T03:49:23.449Z,97.99
2018-08-24T03:51:52.080Z,97.69
2018-08-24T03:54:21.699Z,97.70
2018-08-24T03:56:54.500Z,97.58
2018-08-24T03:59:23.730Z,97.76
2018-08-24T04:01:53.293Z,97.20
2018-08-24T04:04:21.750Z,97.24
2018-08-24T04:06:50.353Z,97.34
2018-08-24T04:09:18.836Z,97.27
2018-08-24T04:11:47.422Z,97.69
2018-08-24T04:14:15.904Z,97.55
2018-08-24T04:17:58.856Z,98.12
2018-08-24T04:20:27.358Z,97.62
2018-08-24T04:22:55.939Z,97.30
2018-08-24T04:25:24.405Z,97.24
2018-08-24T04:27:52.861Z,97.05
2018-08-24T04:30:21.323Z,96.58
2018-08-24T04:32:49.880Z,96.48
2018-08-24T04:35:18.422Z,96.39
2018-08-24T04:38:02.302Z,96.53
2018-08-24T04:40:30.892Z,96.20
2018-08-24T04:43:00.082Z,96.20
2018-08-24T04:45:28.739Z,96.44
2018-08-24T04:47:57.413Z,96.21
2018-08-24T04:50:25.867Z,96.87
2018-08-24T04:52:54.329Z,96.48
2018-08-24T04:55:23.829Z,96.32
2018-08-24T04:57:52.345Z,96.04
2018-08-24T05:00:20.859Z,95.58
2018-08-24T05:02:49.422Z,95.56
2018-08-24T05:05:18.014Z,95.54
2018-08-24T05:07:46.500Z,95.28
2018-08-24T05:10:14.990Z,95.69
2018-08-24T05:12:49.295Z,95.25
2018-08-24T05:15:17.774Z,94.97
2018-08-24T05:17:46.459Z,94.85
2018-08-24T05:20:15.545Z,95.35
2018-08-24T05:22:44.000Z,95.17
2018-08-24T05:25:12.546Z,95.29
2018-08-24T05:27:41.097Z,95.08
2018-08-24T05:30:09.621Z,95.54
2018-08-24T05:32:46.049Z,94.92
2018-08-24T05:35:14.655Z,95.33
2018-08-24T05:37:43.217Z,95.07
2018-08-24T05:40:11.708Z,95.15
2018-08-24T05:42:41.608Z,95.00
2018-08-24T05:45:11.157Z,95.43
2018-08-24T05:47:39.775Z,94.93
2018-08-24T05:50:08.382Z,95.49
2018-08-24T05:52:37.074Z,95.33
2018-08-24T05:55:05.934Z,94.93
2018-08-24T05:57:34.481Z,95.00
2018-08-24T06:00:03.080Z,95.04
2018-08-24T06:02:31.632Z,94.87
2018-08-24T06:05:00.204Z,94.39
2018-08-24T06:07:28.900Z,94.13
2018-08-24T06:09:57.388Z,94.01
2018-08-24T06:12:25.966Z,94.22
2018-08-24T06:14:54.528Z,94.19
2018-08-24T06:17:28.327Z,93.99
2018-08-24T06:19:56.891Z,93.84
2018-08-24T06:22:25.704Z,93.60
2018-08-24T06:24:54.216Z,93.90
2018-08-24T06:27:22.790Z,93.86
2018-08-24T06:30:02.735Z,94.10
2018-08-24T06:32:31.313Z,93.38
2018-08-24T06:34:59.801Z,93.41
2018-08-24T06:37:28.280Z,93.98
2018-08-24T06:39:56.778Z,94.00
2018-08-24T06:42:25.270Z,94.13
2018-08-24T06:44:53.720Z,93.60
2018-08-24T06:47:22.292Z,94.07
2018-08-24T06:49:50.719Z,94.09
2018-08-24T06:52:19.364Z,93.89
2018-08-24T06:54:47.888Z,94.09
2018-08-24T06:57:16.550Z,93.73
2018-08-24T06:59:45.278Z,93.84
2018-08-24T07:02:13.663Z,94.13
2018-08-24T07:04:42.218Z,94.39
2018-08-24T07:07:10.819Z,93.73
2018-08-24T07:09:39.981Z,93.68
2018-08-24T07:12:10.762Z,93.25
2018-08-24T07:14:44.838Z,92.71
2018-08-24T07:17:13.409Z,92.96
2018-08-24T07:19:41.892Z,93.73
2018-08-24T07:22:10.443Z,94.12
2018-08-24T07:24:38.961Z,94.22
2018-08-24T07:27:07.452Z,94.39
2018-08-24T07:29:35.946Z,94.70
2018-08-24T07:32:04.520Z,94.81
2018-08-24T07:34:33.005Z,94.29
2018-08-24T07:37:01.552Z,94.99
2018-08-24T07:39:30.043Z,94.38
2018-08-24T07:41:59.772Z,94.82
2018-08-24T07:44:28.292Z,94.42
2018-08-24T07:46:57.300Z,94.73
2018-08-24T07:49:25.806Z,94.38
2018-08-24T07:51:54.329Z,93.95
2018-08-24T07:54:22.905Z,94.41
2018-08-24T07:56:51.448Z,94.43
2018-08-24T07:59:19.969Z,92.94
2018-08-24T08:01:48.538Z,92.54
2018-08-24T08:04:17.032Z,93.36
2018-08-24T08:06:45.516Z,93.06
2018-08-24T08:09:14.073Z,93.34
2018-08-24T08:11:42.563Z,92.86
2018-08-24T08:14:11.149Z,92.90
2018-08-24T08:16:39.628Z,92.54
2018-08-24T08:19:08.191Z,90.78
2018-08-24T08:21:36.711Z,88.56
2018-08-24T08:24:05.175Z,86.51
2018-08-24T08:26:33.709Z,85.01
2018-08-24T08:29:02.343Z,82.81
2018-08-24T08:31:30.841Z,80.56
2018-08-24T08:33:59.308Z,76.86
2018-08-24T08:36:27.818Z,76.83
2018-08-24T08:38:56.316Z,75.98
2018-08-24T08:41:24.768Z,76.21
2018-08-24T08:43:53.338Z,75.71
2018-08-24T08:46:21.897Z,75.97
2018-08-24T08:49:04.993Z,74.97
2018-08-24T08:51:33.575Z,75.37
2018-08-24T08:54:02.167Z,75.35
2018-08-24T08:56:30.687Z,75.45
2018-08-24T08:58:59.414Z,74.74
2018-08-24T09:01:27.864Z,73.49
2018-08-24T09:03:56.304Z,72.38
2018-08-24T09:06:24.957Z,73.26
2018-08-24T09:08:53.422Z,71.88
2018-08-24T09:11:21.953Z,71.23
2018-08-24T09:13:50.415Z,69.32
2018-08-24T09:16:18.995Z,67.90
2018-08-24T09:18:52.781Z,67.91
2018-08-24T09:21:26.421Z,67.53
2018-08-24T09:24:00.083Z,64.43
2018-08-24T09:26:33.993Z,62.57
2018-08-24T09:29:08.633Z,61.58
2018-08-24T09:31:38.976Z,62.21
2018-08-24T09:34:07.731Z,63.31
2018-08-24T09:36:36.308Z,61.62
2018-08-24T09:39:06.837Z,59.45
2018-08-24T09:41:35.272Z,59.70
2018-08-24T09:44:03.747Z,57.53
2018-08-24T09:46:37.789Z,56.26
2018-08-24T09:49:12.136Z,57.69
2018-08-24T09:51:40.658Z,55.79
2018-08-24T09:54:22.921Z,57.02
2018-08-24T09:56:51.829Z,56.48
2018-08-24T09:59:20.401Z,55.21
2018-08-24T10:01:54.198Z,56.28
2018-08-24T10:04:28.070Z,53.61
2018-08-24T10:07:01.945Z,54.27
2018-08-24T10:09:30.500Z,54.88
2018-08-24T10:11:58.966Z,54.86
2018-08-24T10:14:27.554Z,55.09
2018-08-24T10:16:56.012Z,55.51
2018-08-24T10:19:24.543Z,53.65
2018-08-24T10:21:53.111Z,53.72
2018-08-24T10:24:21.573Z,54.95
2018-08-24T10:26:50.062Z,55.19
2018-08-24T10:29:18.638Z,55.34
2018-08-24T10:31:47.142Z,55.36
2018-08-24T10:34:15.624Z,54.85
2018-08-24T10:36:44.209Z,54.02
2018-08-24T10:39:13.021Z,52.87
2018-08-24T10:41:41.755Z,53.13
2018-08-24T10:44:10.157Z,51.27
2018-08-24T10:46:38.768Z,51.03
2018-08-24T10:49:07.380Z,49.19
2018-08-24T10:51:35.970Z,48.52
2018-08-24T10:54:04.761Z,49.03
2018-08-24T10:56:33.231Z,48.46
2018-08-24T10:59:01.779Z,48.44
2018-08-24T11:01:30.316Z,48.42
2018-08-24T11:03:58.864Z,48.97
2018-08-24T11:06:27.473Z,48.71
2018-08-24T11:08:56.096Z,47.91
2018-08-24T11:11:24.896Z,47.62
2018-08-24T11:13:53.313Z,46.68
2018-08-24T11:16:21.741Z,45.87
2018-08-24T11:18:50.290Z,43.69
2018-08-24T11:21:18.781Z,44.05
2018-08-24T11:23:55.003Z,44.91
2018-08-24T11:26:23.702Z,45.15
2018-08-24T11:28:52.161Z,45.81
2018-08-24T11:31:20.657Z,46.81
2018-08-24T11:33:49.127Z,47.99
2018-08-24T11:36:23.557Z,48.72
2018-08-24T11:38:53.618Z,49.37
2018-08-24T11:41:22.179Z,49.40
2018-08-24T11:43:50.847Z,50.08
2018-08-24T11:46:19.281Z,50.21
2018-08-24T11:48:47.896Z,50.94
2018-08-24T11:51:16.362Z,49.25
2018-08-24T11:53:44.936Z,47.52
2018-08-24T11:56:13.362Z,46.47
2018-08-24T11:58:41.964Z,46.36
2018-08-24T12:01:10.555Z,46.13
2018-08-24T12:03:39.189Z,45.91
2018-08-24T12:06:07.689Z,44.14
2018-08-24T12:08:36.169Z,44.21
2018-08-24T12:11:04.652Z,40.97
2018-08-24T12:13:33.204Z,40.93
2018-08-24T12:16:01.700Z,39.21
2018-08-24T12:18:30.795Z,40.26
2018-08-24T12:20:59.187Z,40.88
2018-08-24T12:23:27.590Z,40.22
2018-08-24T12:25:56.177Z,39.74
2018-08-24T12:28:25.201Z,39.99
2018-08-24T12:30:53.815Z,41.51
2018-08-24T12:33:23.446Z,43.71
2018-08-24T12:35:52.034Z,44.53
2018-08-24T12:38:29.619Z,44.75
2018-08-24T12:40:58.421Z,44.58
2018-08-24T12:43:27.169Z,45.18
2018-08-24T12:45:56.029Z,45.84
2018-08-24T12:48:24.833Z,45.17
2018-08-24T12:50:53.713Z,45.25
2018-08-24T12:53:24.144Z,44.71
2018-08-24T12:55:52.642Z,44.33
2018-08-24T12:58:21.188Z,43.10
2018-08-24T13:00:49.838Z,43.65
2018-08-24T13:03:18.678Z,43.28
2018-08-24T13:05:47.273Z,42.92
2018-08-24T13:08:15.909Z,43.17
2018-08-24T13:10:44.625Z,42.27
2018-08-24T13:13:13.314Z,42.96
2018-08-24T13:15:42.016Z,42.46
2018-08-24T13:18:10.908Z,41.95
2018-08-24T13:20:39.474Z,41.14
2018-08-24T13:23:08.518Z,41.91
2018-08-24T13:25:37.104Z,42.82
2018-08-24T13:28:05.609Z,43.91
2018-08-24T13:30:34.076Z,42.94
2018-08-24T13:33:03.583Z,42.76
2018-08-24T13:35:32.909Z,42.87
2018-08-24T13:38:01.480Z,44.01
2018-08-24T13:40:30.321Z,43.70
2018-08-24T13:42:59.320Z,43.58
2018-08-24T13:45:28.574Z,42.97
2018-08-24T13:47:57.153Z,42.48
2018-08-24T13:50:27.221Z,41.79
2018-08-24T13:52:55.758Z,41.51
2018-08-24T13:55:24.267Z,41.38
2018-08-24T13:57:52.813Z,39.62
2018-08-24T14:00:21.745Z,40.97
2018-08-24T14:02:50.432Z,39.00
2018-08-24T14:05:19.515Z,38.67
2018-08-24T14:07:48.393Z,39.88
2018-08-24T14:10:18.394Z,40.04
2018-08-24T14:12:47.450Z,39.41
2018-08-24T14:15:18.290Z,39.49
2018-08-24T14:17:54.038Z,40.07
2018-08-24T14:20:23.785Z,39.28
2018-08-24T14:22:52.831Z,40.19
2018-08-24T14:25:21.381Z,39.42
2018-08-24T14:27:50.036Z,39.79
2018-08-24T14:30:18.550Z,40.46
2018-08-24T14:32:47.216Z,41.07
2018-08-24T14:35:16.141Z,41.40
2018-08-24T14:37:45.169Z,41.15
2018-08-24T14:40:15.733Z,41.60
2018-08-24T14:42:44.210Z,40.81
2018-08-24T14:45:12.786Z,40.28
2018-08-24T14:47:41.702Z,39.74
2018-08-24T14:50:48.396Z,39.66
2018-08-24T14:53:17.609Z,39.94
2018-08-24T14:55:46.483Z,40.41
2018-08-24T14:58:15.045Z,40.45
2018-08-24T15:00:44.090Z,40.19
2018-08-24T15:03:25.344Z,39.99
2018-08-24T15:05:54.221Z,40.26
2018-08-24T15:08:23.078Z,40.41
2018-08-24T15:10:52.079Z,40.74
2018-08-24T15:13:21.545Z,40.79
2018-08-24T15:15:50.124Z,40.71
2018-08-24T15:18:19.160Z,41.23
2018-08-24T15:20:51.900Z,41.42
2018-08-24T15:23:20.853Z,41.82
2018-08-24T15:25:50.049Z,41.82
2018-08-24T15:28:19.017Z,41.93
2018-08-24T15:30:47.767Z,41.56
2018-08-24T15:33:16.618Z,41.84
2018-08-24T15:35:45.392Z,42.01
2018-08-24T15:38:14.312Z,42.75
2018-08-24T15:40:42.906Z,42.94
2018-08-24T15:43:28.700Z,42.70
2018-08-24T15:45:57.736Z,42.93
2018-08-24T15:48:26.828Z,42.96
2018-08-24T15:50:55.889Z,43.04
2018-08-24T15:53:24.777Z,43.74
2018-08-24T15:55:53.348Z,43.81
2018-08-24T15:58:21.948Z,43.79
2018-08-24T16:00:52.349Z,44.45
2018-08-24T16:03:21.514Z,44.17
2018-08-24T16:05:50.149Z,43.41
2018-08-24T16:08:18.734Z,43.67
2018-08-24T16:10:47.674Z,43.94
2018-08-24T16:13:25.128Z,43.86
2018-08-24T16:15:54.271Z,45.15
2018-08-24T16:18:23.579Z,45.78
2018-08-24T16:20:53.196Z,45.47
2018-08-24T16:23:22.394Z,46.02
2018-08-24T16:25:51.287Z,45.65
2018-08-24T16:28:20.158Z,45.84
2018-08-24T16:30:48.822Z,45.87
2018-08-24T16:33:22.234Z,45.98
2018-08-24T16:35:50.970Z,45.95
2018-08-24T16:38:19.538Z,46.13
2018-08-24T16:40:47.984Z,45.97
2018-08-24T16:43:16.716Z,46.18
2018-08-24T16:45:45.772Z,46.26
2018-08-24T16:48:14.671Z,46.24
2018-08-24T16:50:44.348Z,46.06
2018-08-24T16:53:13.193Z,45.74
2018-08-24T16:55:42.140Z,45.64
2018-08-24T16:58:10.882Z,45.69
2018-08-24T17:00:40.827Z,46.11
2018-08-24T17:03:09.410Z,46.16
2018-08-24T17:05:38.055Z,46.55
2018-08-24T17:08:06.960Z,46.69
2018-08-24T17:10:35.433Z,47.07
2018-08-24T17:13:03.961Z,47.77
2018-08-24T17:15:32.588Z,47.74
2018-08-24T17:18:02.678Z,47.96
2018-08-24T17:20:31.422Z,48.25
2018-08-24T17:23:00.100Z,48.10
2018-08-24T17:25:28.718Z,48.25
2018-08-24T17:27:57.814Z,47.95
2018-08-24T17:30:26.734Z,47.68
2018-08-24T17:32:55.538Z,47.62
2018-08-24T17:35:24.038Z,48.08
2018-08-24T17:37:52.880Z,47.85
2018-08-24T17:40:21.814Z,47.90
2018-08-24T17:42:50.506Z,48.35
2018-08-24T17:45:19.231Z,48.37
2018-08-24T17:48:23.867Z,48.91
2018-08-24T17:50:52.591Z,48.99
2018-08-24T17:53:21.479Z,49.11
2018-08-24T17:55:50.189Z,49.06
2018-08-24T17:58:47.400Z,49.32
2018-08-24T18:01:19.705Z,50.17
2018-08-24T18:03:48.229Z,50.77
2018-08-24T18:06:17.005Z,51.05
2018-08-24T18:08:45.777Z,50.78
2018-08-24T18:11:14.264Z,50.18
2018-08-24T18:13:42.846Z,51.07
2018-08-24T18:16:11.335Z,51.75
2018-08-24T18:18:39.957Z,51.86
2018-08-24T18:21:18.475Z,51.27
2018-08-24T18:23:46.952Z,51.56
2018-08-24T18:26:15.589Z,51.96
2018-08-24T18:28:44.561Z,52.36
2018-08-24T18:31:13.210Z,52.41
2018-08-24T18:33:41.857Z,52.52
2018-08-24T18:36:10.457Z,52.82
2018-08-24T18:38:39.171Z,52.70
2018-08-24T18:41:07.996Z,52.93
2018-08-24T18:43:36.692Z,53.78
2018-08-24T18:46:05.763Z,53.89
2018-08-24T18:48:34.486Z,53.98
2018-08-24T18:51:03.390Z,53.42
2018-08-24T18:53:46.782Z,53.85
2018-08-24T18:56:15.376Z,53.43
2018-08-24T18:58:44.365Z,53.95
2018-08-24T19:01:14.437Z,53.89
2018-08-24T19:03:44.086Z,53.71
2018-08-24T19:06:17.350Z,54.11
2018-08-24T19:08:45.857Z,54.27
2018-08-24T19:11:19.667Z,54.69
2018-08-24T19:13:48.257Z,54.85
2018-08-24T19:16:16.857Z,54.61
2018-08-24T19:18:52.048Z,55.05
2018-08-24T19:21:26.869Z,55.36
2018-08-24T19:23:55.479Z,55.13
2018-08-24T19:26:24.560Z,55.44
2018-08-24T19:28:58.433Z,55.37
2018-08-24T19:31:27.013Z,55.10
2018-08-24T19:33:57.777Z,55.28
2018-08-24T19:36:26.585Z,55.25
2018-08-24T19:38:55.107Z,56.03
2018-08-24T19:41:28.993Z,56.54
2018-08-24T19:43:58.387Z,56.72
2018-08-24T19:46:27.155Z,56.97
2018-08-24T19:49:00.798Z,57.96
2018-08-24T19:51:29.325Z,59.13
2018-08-24T19:53:57.883Z,59.15
2018-08-24T19:56:26.540Z,60.06
2018-08-24T19:59:00.362Z,60.80
2018-08-24T20:01:29.081Z,61.19
2018-08-24T20:04:19.406Z,62.33
2018-08-24T20:06:53.346Z,63.36
2018-08-24T20:09:27.149Z,63.23
2018-08-24T20:11:55.712Z,64.19
2018-08-24T20:14:29.551Z,64.53
2018-08-24T20:17:03.880Z,64.85
2018-08-24T20:19:32.503Z,65.14
2018-08-24T20:22:01.088Z,65.11
2018-08-24T20:24:37.849Z,65.27
2018-08-24T20:27:06.274Z,65.84
2018-08-24T20:29:35.152Z,65.55
2018-08-24T20:32:03.739Z,64.67
2018-08-24T20:34:32.423Z,63.87
2018-08-24T20:37:00.993Z,63.51
2018-08-24T20:39:29.595Z,62.90
2018-08-24T20:41:58.254Z,62.66
2018-08-24T20:44:26.838Z,62.04
2018-08-24T20:46:55.323Z,62.56
2018-08-24T20:49:23.880Z,62.53
2018-08-24T20:51:52.480Z,62.13
2018-08-24T20:54:21.124Z,62.15
2018-08-24T20:56:49.621Z,62.28
2018-08-24T20:59:18.433Z,62.31
2018-08-24T21:01:47.095Z,62.49
2018-08-24T21:04:15.713Z,62.74
2018-08-24T21:06:44.425Z,62.63
2018-08-24T21:09:12.957Z,62.68
2018-08-24T21:11:41.446Z,62.50
2018-08-24T21:14:09.959Z,62.04
2018-08-24T21:16:38.543Z,61.97
2018-08-24T21:19:07.161Z,60.77
2018-08-24T21:21:35.789Z,60.51
2018-08-24T21:24:04.375Z,61.00
2018-08-24T21:26:32.980Z,61.06
2018-08-24T21:29:01.556Z,59.95
2018-08-24T21:31:30.638Z,59.05
2018-08-24T21:33:59.250Z,58.66
2018-08-24T21:36:36.618Z,57.87
2018-08-24T21:39:08.876Z,57.90
2018-08-24T21:41:37.881Z,57.22
2018-08-24T21:44:06.679Z,57.66
2018-08-24T21:46:35.174Z,58.52
2018-08-24T21:49:04.447Z,59.96
2018-08-24T21:51:33.023Z,61.05
2018-08-24T21:54:01.456Z,61.28
2018-08-24T21:56:30.129Z,61.79
2018-08-24T21:58:58.622Z,61.40
2018-08-24T22:01:27.273Z,61.29
2018-08-24T22:03:55.873Z,61.53
2018-08-24T22:06:51.441Z,61.05
2018-08-24T22:09:19.976Z,60.83
2018-08-24T22:11:49.237Z,60.25
2018-08-24T22:14:18.960Z,60.47
2018-08-24T22:16:47.562Z,59.19
2018-08-24T22:19:16.142Z,58.31
2018-08-24T22:21:44.653Z,58.03
2018-08-24T22:24:13.211Z,58.00
2018-08-24T22:26:41.719Z,58.31
2018-08-24T22:29:10.313Z,57.64
2018-08-24T22:31:38.831Z,57.78
2018-08-24T22:34:07.494Z,57.39
2018-08-24T22:36:36.200Z,57.21
2018-08-24T22:39:06.534Z,57.34
2018-08-24T22:41:35.109Z,57.38
2018-08-24T22:44:04.194Z,57.18
2018-08-24T22:46:33.094Z,57.28
2018-08-24T22:49:02.407Z,57.56
2018-08-24T22:51:31.249Z,57.32
2018-08-24T22:54:00.704Z,57.03
2018-08-24T22:56:29.972Z,57.23
2018-08-24T22:58:58.818Z,56.97
2018-08-24T23:01:27.705Z,57.17
2018-08-24T23:03:56.361Z,56.74
2018-08-24T23:06:25.113Z,56.94
2018-08-24T23:08:53.797Z,57.55
2018-08-24T23:11:23.389Z,57.31
2018-08-24T23:13:52.185Z,57.05
2018-08-24T23:16:20.911Z,57.15
2018-08-24T23:18:49.553Z,57.14
2018-08-24T23:21:18.904Z,57.69
2018-08-24T23:23:47.660Z,57.38
2018-08-24T23:26:16.484Z,57.53
2018-08-24T23:28:46.250Z,57.46
2018-08-24T23:31:14.973Z,57.32
2018-08-24T23:33:44.285Z,57.23
2018-08-24T23:36:12.989Z,57.80
2018-08-24T23:38:41.713Z,57.97
2018-08-24T23:41:10.621Z,57.92
2018-08-24T23:43:39.337Z,57.98
2018-08-24T23:46:09.646Z,58.09
2018-08-24T23:48:38.769Z,58.51
2018-08-24T23:51:07.502Z,58.48
2018-08-24T23:53:36.200Z,58.26
2018-08-24T23:56:04.898Z,58.81
2018-08-24T23:58:38.490Z,58.92
